createdAt,value
2022-11-12T09:48:32.637Z,103197.09
2022-11-12T09:51:28.902Z,103209.41
2022-11-12T09:54:32.929Z,103205.59
2022-11-12T09:57:19.762Z,103211.41
2022-11-12T10:00:16.298Z,103204.81
2022-11-12T10:03:26.079Z,103214.00
2022-11-12T10:06:19.574Z,103210.53
2022-11-12T10:09:16.215Z,103226.97
2022-11-12T10:12:20.919Z,103208.91
2022-11-12T10:15:13.704Z,103211.81
2022-11-12T10:19:08.178Z,103198.75
2022-11-12T10:21:52.907Z,103212.66
2022-11-12T10:24:21.147Z,103205.38
2022-11-12T10:26:48.816Z,103205.72
2022-11-12T10:29:33.404Z,103203.91
2022-11-12T10:32:03.558Z,103194.69
2022-11-12T10:34:30.472Z,103202.47
2022-11-12T10:37:04.812Z,103197.41
2022-11-12T10:39:43.408Z,103203.72
2022-11-12T10:42:16.119Z,103191.97
2022-11-12T10:44:42.834Z,103184.88
2022-11-12T10:47:26.160Z,103183.84
2022-11-12T10:50:10.711Z,103182.31
2022-11-12T10:52:37.136Z,103181.44
2022-11-12T10:55:33.474Z,103181.69
2022-11-12T10:58:14.342Z,103181.63
2022-11-12T11:00:53.883Z,103181.09
2022-11-12T11:03:26.127Z,103185.84
2022-11-12T11:06:03.198Z,103187.00
2022-11-12T11:08:36.628Z,103173.81
2022-11-12T11:11:24.693Z,103172.91
2022-11-12T11:13:55.783Z,103165.53
2022-11-12T11:16:25.675Z,103162.88
2022-11-12T11:18:57.817Z,103153.97
2022-11-12T11:21:45.884Z,103170.25
2022-11-12T11:24:32.102Z,103161.38
2022-11-12T11:27:52.285Z,103168.75
2022-11-12T11:30:20.752Z,103156.97
2022-11-12T11:33:05.529Z,103144.50
2022-11-12T11:35:51.963Z,103150.78
2022-11-12T11:38:39.240Z,103148.25
2022-11-12T11:41:19.537Z,103137.38
2022-11-12T11:43:55.637Z,103128.94
2022-11-12T11:46:42.669Z,103142.16
2022-11-12T11:49:47.841Z,103143.13
2022-11-12T11:52:32.291Z,103132.81
2022-11-12T11:55:10.355Z,103139.72
2022-11-12T11:57:58.092Z,103137.31
2022-11-12T12:00:25.652Z,103136.94
2022-11-12T12:03:16.757Z,103140.03
2022-11-12T12:05:45.885Z,103126.81
2022-11-12T12:08:40.624Z,103128.97
2022-11-12T12:11:26.572Z,103124.91
2022-11-12T12:14:07.926Z,103123.09
2022-11-12T12:17:04.828Z,103113.31
2022-11-12T12:19:44.417Z,103114.44
2022-11-12T12:22:18.742Z,103112.59
2022-11-12T12:24:57.107Z,103105.38
2022-11-12T12:27:34.793Z,103095.22
2022-11-12T12:30:07.293Z,103092.16
2022-11-12T12:32:42.745Z,103083.88
2022-11-12T12:35:33.699Z,103084.69
2022-11-12T12:38:06.388Z,103076.88
2022-11-12T12:40:39.058Z,103065.88
2022-11-12T12:43:20.805Z,103082.94
2022-11-12T12:45:48.509Z,103074.25
2022-11-12T12:48:46.344Z,103067.09
2022-11-12T12:51:13.335Z,103062.75
2022-11-12T12:53:39.804Z,103060.59
2022-11-12T12:56:32.516Z,103053.78
2022-11-12T12:59:00.662Z,103052.13
2022-11-12T13:01:30.776Z,103036.28
2022-11-12T13:03:59.555Z,103036.28
2022-11-12T13:06:27.433Z,103027.34
2022-11-12T13:08:59.693Z,103033.72
2022-11-12T13:11:41.415Z,103023.56
2022-11-12T13:14:37.323Z,103025.66
2022-11-12T13:17:09.626Z,103020.72
2022-11-12T13:19:54.230Z,103017.09
2022-11-12T13:22:23.467Z,103019.91
2022-11-12T13:25:08.101Z,103016.41
2022-11-12T13:27:43.424Z,103010.00
2022-11-12T13:30:14.751Z,103017.88
2022-11-12T13:32:42.167Z,103024.13
2022-11-12T13:35:11.256Z,103014.34
2022-11-12T13:37:45.639Z,103005.22
2022-11-12T13:40:15.946Z,103009.06
2022-11-12T13:42:42.755Z,102999.13
2022-11-12T13:45:11.089Z,103004.78
2022-11-12T13:47:38.134Z,102999.41
2022-11-12T13:50:09.448Z,103000.00
2022-11-12T13:52:36.500Z,103000.31
2022-11-12T13:55:12.966Z,102997.94
2022-11-12T13:57:39.358Z,102991.06
2022-11-12T14:00:17.566Z,102998.88
2022-11-12T14:02:48.146Z,102999.44
2022-11-12T14:05:18.149Z,102996.38
2022-11-12T14:08:00.184Z,102999.22
2022-11-12T14:11:17.141Z,102983.06
2022-11-12T14:14:07.945Z,102985.13
2022-11-12T14:16:51.974Z,102976.59
2022-11-12T14:19:46.075Z,102982.81
2022-11-12T14:22:20.887Z,102969.25
2022-11-12T14:24:52.959Z,102975.13
2022-11-12T14:27:28.367Z,102971.53
2022-11-12T14:30:22.622Z,102969.75
2022-11-12T14:32:57.563Z,102971.69
2022-11-12T14:35:31.860Z,102960.41
2022-11-12T14:38:09.307Z,102968.78
2022-11-12T14:40:41.922Z,102960.66
2022-11-12T14:43:22.345Z,102952.19
2022-11-12T14:45:55.254Z,102950.13
2022-11-12T14:48:21.640Z,102951.78
2022-11-12T14:50:52.056Z,102956.00
2022-11-12T14:53:49.483Z,102960.13
2022-11-12T14:56:44.422Z,102965.66
2022-11-12T14:59:12.862Z,102964.09
2022-11-12T15:04:26.864Z,102957.81
2022-11-12T15:06:55.358Z,102962.88
2022-11-12T15:09:36.963Z,102947.56
2022-11-12T15:12:18.891Z,102950.19
2022-11-12T15:14:45.222Z,102960.53
2022-11-12T15:17:28.623Z,102961.44
2022-11-12T15:20:01.142Z,102958.34
2022-11-12T15:22:27.678Z,102964.94
2022-11-12T15:24:54.161Z,102960.03
2022-11-12T15:27:34.533Z,102954.81
2022-11-12T15:30:33.086Z,102958.50
2022-11-12T15:33:11.306Z,102953.66
2022-11-12T15:35:41.544Z,102953.22
2022-11-12T15:38:26.947Z,102958.50
2022-11-12T15:40:57.472Z,102960.91
2022-11-12T15:43:36.260Z,102956.47
2022-11-12T15:46:03.234Z,102953.66
2022-11-12T15:48:29.641Z,102954.03
2022-11-12T15:50:56.155Z,102947.78
2022-11-12T15:53:22.631Z,102951.28
2022-11-12T15:55:51.193Z,102953.66
2022-11-12T15:58:26.934Z,102932.88
2022-11-12T16:00:53.378Z,102937.34
2022-11-12T16:03:21.237Z,102931.81
2022-11-12T16:05:48.887Z,102945.69
2022-11-12T16:08:16.772Z,102939.47
2022-11-12T16:10:48.640Z,102941.91
2022-11-12T16:13:27.739Z,102946.78
2022-11-12T16:15:57.708Z,102942.84
2022-11-12T16:18:24.081Z,102947.75
2022-11-12T16:20:50.633Z,102938.31
2022-11-12T16:23:17.009Z,102946.34
2022-11-12T16:25:45.208Z,102934.44
2022-11-12T16:28:16.897Z,102945.63
2022-11-12T16:30:44.560Z,102943.13
2022-11-12T16:33:12.503Z,102947.09
2022-11-12T16:35:39.060Z,102950.28
2022-11-12T16:38:13.259Z,102949.72
2022-11-12T16:40:39.631Z,102950.81
2022-11-12T16:43:05.922Z,102951.44
2022-11-12T16:45:35.652Z,102962.88
2022-11-12T16:48:12.376Z,102966.31
2022-11-12T16:50:38.780Z,102965.72
2022-11-12T16:53:05.108Z,102963.59
2022-11-12T16:55:31.526Z,102952.72
2022-11-12T16:58:00.817Z,102948.63
2022-11-12T17:00:27.731Z,102955.63
2022-11-12T17:02:54.145Z,102965.69
2022-11-12T17:05:23.169Z,102961.69
2022-11-12T17:07:50.780Z,102957.94
2022-11-12T17:10:17.164Z,102961.03
2022-11-12T17:12:47.738Z,102952.81
2022-11-12T17:15:14.087Z,102953.47
2022-11-12T17:17:40.516Z,102947.97
2022-11-12T17:20:07.513Z,102952.50
2022-11-12T17:22:33.881Z,102955.53
2022-11-12T17:25:00.286Z,102955.38
2022-11-12T17:27:26.760Z,102955.94
2022-11-12T17:29:53.388Z,102956.38
2022-11-12T17:32:19.754Z,102955.88
2022-11-12T17:34:46.743Z,102949.81
2022-11-12T17:37:13.066Z,102934.50
2022-11-12T17:39:39.377Z,102950.28
2022-11-12T17:42:05.742Z,102951.44
2022-11-12T17:44:32.575Z,102953.50
2022-11-12T17:46:58.922Z,102953.34
2022-11-12T17:49:25.280Z,102953.13
2022-11-12T17:51:52.191Z,102949.59
2022-11-12T17:54:18.611Z,102944.09
2022-11-12T17:56:45.176Z,102947.84
2022-11-12T17:59:11.517Z,102940.59
2022-11-12T18:01:38.131Z,102941.84
2022-11-12T18:04:04.735Z,102941.56
2022-11-12T18:06:33.266Z,102943.91
2022-11-12T18:09:03.845Z,102955.88
2022-11-12T18:11:30.695Z,102959.78
2022-11-12T18:13:57.707Z,102949.66
2022-11-12T18:16:30.635Z,102947.47
2022-11-12T18:18:57.403Z,102950.34
2022-11-12T18:21:25.709Z,102944.53
2022-11-12T18:23:52.266Z,102953.56
2022-11-12T18:26:20.160Z,102949.09
2022-11-12T18:28:58.981Z,102947.75
2022-11-12T18:31:27.301Z,102954.53
2022-11-12T18:33:55.540Z,102948.50
2022-11-12T18:36:26.383Z,102947.63
2022-11-12T18:38:53.707Z,102958.22
2022-11-12T18:41:23.313Z,102957.09
2022-11-12T18:43:49.792Z,102958.50
2022-11-12T18:46:16.211Z,102954.66
2022-11-12T18:48:42.773Z,102956.81
2022-11-12T18:51:11.980Z,102956.00
2022-11-12T18:53:39.486Z,102951.25
2022-11-12T18:56:17.125Z,102951.97
2022-11-12T18:58:44.411Z,102940.88
2022-11-12T19:01:13.844Z,102943.59
2022-11-12T19:03:40.216Z,102935.22
2022-11-12T19:06:07.513Z,102951.31
2022-11-12T19:08:34.956Z,102944.75
2022-11-12T19:11:05.752Z,102946.72
2022-11-12T19:13:32.569Z,102958.66
2022-11-12T19:16:04.562Z,102949.19
2022-11-12T19:18:31.457Z,102947.06
2022-11-12T19:21:07.066Z,102946.41
2022-11-12T19:23:33.567Z,102954.91
2022-11-12T19:26:01.304Z,102954.19
2022-11-12T19:28:28.055Z,102946.88
2022-11-12T19:30:54.798Z,102953.84
2022-11-12T19:33:21.702Z,102954.00
2022-11-12T19:35:48.165Z,102923.50
2022-11-12T19:38:15.201Z,102939.81
2022-11-12T19:40:42.468Z,102955.47
2022-11-12T19:43:08.758Z,102939.31
2022-11-12T19:45:35.125Z,102944.03
2022-11-12T19:48:01.428Z,102943.91
2022-11-12T19:50:27.740Z,102949.22
2022-11-12T19:52:54.020Z,102950.03
2022-11-12T19:55:20.337Z,102940.34
2022-11-12T19:57:46.690Z,102948.25
2022-11-12T20:00:13.487Z,102949.53
2022-11-12T20:02:39.866Z,102939.03
2022-11-12T20:05:06.389Z,102942.69
2022-11-12T20:07:33.035Z,102930.69
2022-11-12T20:10:01.133Z,102930.13
2022-11-12T20:12:27.789Z,102926.38
2022-11-12T20:14:54.095Z,102912.81
2022-11-12T20:17:20.710Z,102923.19
2022-11-12T20:19:46.996Z,102940.53
2022-11-12T20:22:13.325Z,102938.75
2022-11-12T20:24:39.615Z,102923.72
2022-11-12T20:27:05.948Z,102921.50
2022-11-12T20:29:32.531Z,102927.75
2022-11-12T20:31:58.860Z,102929.72
2022-11-12T20:34:25.369Z,102917.84
2022-11-12T20:36:51.689Z,102916.53
2022-11-12T20:39:18.066Z,102917.19
2022-11-12T20:41:44.384Z,102910.56
2022-11-12T20:44:10.684Z,102910.69
2022-11-12T20:46:37.049Z,102910.78
2022-11-12T20:49:03.366Z,102907.94
2022-11-12T20:51:29.689Z,102909.34
2022-11-12T20:54:00.228Z,102913.75
2022-11-12T20:56:28.867Z,102904.44
2022-11-12T20:58:55.607Z,102901.06
2022-11-12T21:01:23.617Z,102894.75
2022-11-12T21:03:50.476Z,102903.28
2022-11-12T21:06:19.006Z,102908.31
2022-11-12T21:08:45.724Z,102904.69
2022-11-12T21:11:15.150Z,102902.94
2022-11-12T21:13:41.970Z,102885.91
2022-11-12T21:16:09.728Z,102881.97
2022-11-12T21:18:37.465Z,102889.13
2022-11-12T21:21:07.938Z,102895.78
2022-11-12T21:23:37.426Z,102898.66
2022-11-12T21:26:15.347Z,102898.47
2022-11-12T21:28:46.551Z,102893.25
2022-11-12T21:31:16.073Z,102896.97
2022-11-12T21:33:42.594Z,102882.13
2022-11-12T21:36:14.780Z,102891.31
2022-11-12T21:38:42.578Z,102881.59
2022-11-12T21:41:11.242Z,102876.94
2022-11-12T21:43:39.395Z,102878.31
2022-11-12T21:46:18.212Z,102873.78
2022-11-12T21:48:45.265Z,102874.84
2022-11-12T21:51:14.383Z,102879.00
2022-11-12T21:53:41.608Z,102887.06
2022-11-12T21:56:16.186Z,102889.63
2022-11-12T21:58:43.279Z,102892.38
2022-11-12T22:01:11.744Z,102892.53
2022-11-12T22:03:39.090Z,102882.06
2022-11-12T22:06:06.593Z,102887.50
2022-11-12T22:08:33.405Z,102884.06
2022-11-12T22:11:04.788Z,102887.53
2022-11-12T22:13:31.724Z,102890.47
2022-11-12T22:15:58.458Z,102887.41
2022-11-12T22:18:25.057Z,102892.75
2022-11-12T22:20:59.069Z,102892.44
2022-11-12T22:23:25.916Z,102886.91
2022-11-12T22:25:55.728Z,102886.09
2022-11-12T22:28:22.083Z,102875.41
2022-11-12T22:30:48.389Z,102877.06
2022-11-12T22:33:14.750Z,102879.13
2022-11-12T22:35:41.150Z,102872.16
2022-11-12T22:38:07.531Z,102874.44
2022-11-12T22:40:34.044Z,102880.50
2022-11-12T22:43:00.361Z,102876.00
2022-11-12T22:45:26.750Z,102864.75
2022-11-12T22:47:53.027Z,102862.22
2022-11-12T22:50:19.447Z,102854.38
2022-11-12T22:52:49.959Z,102861.72
2022-11-12T22:55:16.491Z,102862.63
2022-11-12T22:57:42.849Z,102866.50
2022-11-12T23:00:11.209Z,102864.09
2022-11-12T23:02:37.524Z,102857.50
2022-11-12T23:05:03.948Z,102849.69
2022-11-12T23:07:30.326Z,102860.56
2022-11-12T23:09:56.793Z,102848.47
2022-11-12T23:12:23.137Z,102862.44
2022-11-12T23:14:50.029Z,102857.75
2022-11-12T23:17:16.376Z,102863.19
2022-11-12T23:19:42.674Z,102845.31
2022-11-12T23:22:09.007Z,102846.19
2022-11-12T23:24:35.349Z,102848.75
2022-11-12T23:27:01.684Z,102861.31
2022-11-12T23:29:27.977Z,102847.00
2022-11-12T23:31:54.277Z,102852.69
2022-11-12T23:34:20.772Z,102858.69
2022-11-12T23:36:47.122Z,102852.88
2022-11-12T23:39:13.566Z,102865.34
2022-11-12T23:41:40.690Z,102847.69
2022-11-12T23:44:08.546Z,102859.41
2022-11-12T23:46:34.882Z,102848.25
2022-11-12T23:49:03.906Z,102854.94
2022-11-12T23:51:30.299Z,102850.25
2022-11-12T23:53:56.640Z,102849.41
2022-11-12T23:56:23.313Z,102844.91
2022-11-12T23:58:53.804Z,102835.00
